createdAt,value
2023-04-16T00:00:42.211Z,97359.44
2023-04-16T00:03:29.001Z,97359.48
2023-04-16T00:05:55.506Z,97364.52
2023-04-16T00:08:22.492Z,97362.73
2023-04-16T00:10:48.769Z,97361.88
2023-04-16T00:13:15.074Z,97364.46
2023-04-16T00:15:41.305Z,97358.58
2023-04-16T00:18:07.552Z,97357.66
2023-04-16T00:20:33.841Z,97360.40
2023-04-16T00:23:00.117Z,97358.00
2023-04-16T00:25:26.570Z,97359.95
2023-04-16T00:27:52.963Z,97362.84
2023-04-16T00:30:19.226Z,97363.06
2023-04-16T00:32:45.637Z,97366.54
2023-04-16T00:35:12.019Z,97369.39
2023-04-16T00:37:38.483Z,97369.55
2023-04-16T00:40:05.118Z,97375.50
2023-04-16T00:42:31.420Z,97372.39
2023-04-16T00:44:57.641Z,97375.91
2023-04-16T00:47:24.009Z,97373.30
2023-04-16T00:49:50.267Z,97375.20
2023-04-16T00:52:16.598Z,97371.36
2023-04-16T00:54:42.949Z,97374.64
2023-04-16T00:57:09.494Z,97374.62
2023-04-16T00:59:35.884Z,97379.12
2023-04-16T01:02:02.311Z,97382.39
2023-04-16T01:04:29.406Z,97381.80
2023-04-16T01:06:56.058Z,97384.09
2023-04-16T01:09:22.296Z,97388.54
2023-04-16T01:11:48.599Z,97391.84
2023-04-16T01:14:14.919Z,97397.39
2023-04-16T01:16:41.228Z,97402.55
2023-04-16T01:19:08.019Z,97404.16
2023-04-16T01:21:34.501Z,97405.84
2023-04-16T01:24:04.158Z,97407.55
2023-04-16T01:26:30.741Z,97404.17
2023-04-16T01:28:58.063Z,97401.08
2023-04-16T01:31:24.479Z,97397.06
2023-04-16T01:34:18.740Z,97402.11
2023-04-16T01:36:45.092Z,97401.95
2023-04-16T01:39:11.530Z,97407.02
2023-04-16T01:41:37.939Z,97413.98
2023-04-16T01:44:04.226Z,97415.14
2023-04-16T01:46:31.777Z,97420.92
2023-04-16T01:48:58.599Z,97419.52
2023-04-16T01:51:25.178Z,97427.26
2023-04-16T01:53:51.384Z,97427.48
2023-04-16T01:56:18.051Z,97429.39
2023-04-16T01:58:44.665Z,97427.48
2023-04-16T02:01:12.952Z,97430.10
2023-04-16T02:03:40.023Z,97431.40
2023-04-16T02:06:06.768Z,97435.52
2023-04-16T02:08:33.896Z,97435.17
2023-04-16T02:11:00.220Z,97440.10
2023-04-16T02:13:26.582Z,97442.66
2023-04-16T02:15:52.905Z,97443.71
2023-04-16T02:18:45.180Z,97442.23
2023-04-16T02:21:12.807Z,97447.30
2023-04-16T02:23:39.373Z,97446.14
2023-04-16T02:26:05.672Z,97443.38
2023-04-16T02:28:32.367Z,97448.49
2023-04-16T02:30:59.153Z,97448.66
2023-04-16T02:33:25.974Z,97446.73
2023-04-16T02:35:56.801Z,97443.14
2023-04-16T02:38:23.101Z,97439.87
2023-04-16T02:40:49.495Z,97441.82
2023-04-16T02:43:15.921Z,97441.58
2023-04-16T02:45:42.186Z,97446.09
2023-04-16T02:48:08.455Z,97445.36
2023-04-16T02:50:34.809Z,97446.39
2023-04-16T02:53:01.132Z,97446.77
2023-04-16T02:55:27.648Z,97446.95
2023-04-16T02:57:54.008Z,97452.40
2023-04-16T03:00:20.375Z,97453.73
2023-04-16T03:02:46.869Z,97452.71
2023-04-16T03:05:13.148Z,97446.41
2023-04-16T03:07:39.462Z,97447.09
2023-04-16T03:10:06.454Z,97448.13
2023-04-16T03:12:32.694Z,97448.83
2023-04-16T03:14:59.081Z,97454.70
2023-04-16T03:17:25.861Z,97464.34
2023-04-16T03:19:52.128Z,97460.34
2023-04-16T03:22:19.094Z,97468.23
2023-04-16T03:24:46.028Z,97476.48
2023-04-16T03:27:12.290Z,97478.75
2023-04-16T03:29:38.634Z,97478.36
2023-04-16T03:32:05.365Z,97484.85
2023-04-16T03:34:31.751Z,97489.98
2023-04-16T03:36:57.994Z,97490.77
2023-04-16T03:39:24.543Z,97491.45
2023-04-16T03:41:51.349Z,97492.29
2023-04-16T03:44:17.887Z,97496.69
2023-04-16T03:46:44.831Z,97497.21
2023-04-16T03:49:11.449Z,97499.88
2023-04-16T03:51:38.114Z,97500.27
2023-04-16T03:54:04.611Z,97500.20
2023-04-16T03:56:32.800Z,97499.98
2023-04-16T03:58:59.050Z,97505.95
2023-04-16T04:01:25.535Z,97511.31
2023-04-16T04:03:52.124Z,97518.23
2023-04-16T04:06:18.676Z,97520.84
2023-04-16T04:08:44.974Z,97524.29
2023-04-16T04:11:13.008Z,97528.31
2023-04-16T04:13:41.489Z,97533.31
2023-04-16T04:16:07.972Z,97535.50
2023-04-16T04:18:34.365Z,97535.34
2023-04-16T04:21:05.333Z,97539.09
2023-04-16T04:23:33.378Z,97538.72
2023-04-16T04:25:59.728Z,97541.73
2023-04-16T04:28:26.131Z,97540.95
2023-04-16T04:30:52.460Z,97543.00
2023-04-16T04:33:19.228Z,97542.45
2023-04-16T04:35:46.902Z,97543.25
2023-04-16T04:38:16.109Z,97550.75
2023-04-16T04:40:42.774Z,97551.52
2023-04-16T04:43:09.178Z,97553.38
2023-04-16T04:45:35.730Z,97556.27
2023-04-16T04:48:04.458Z,97561.48
2023-04-16T04:50:30.929Z,97559.91
2023-04-16T04:52:57.468Z,97562.89
2023-04-16T04:55:23.734Z,97566.78
2023-04-16T04:57:50.101Z,97571.45
2023-04-16T05:00:16.670Z,97575.38
2023-04-16T05:02:53.843Z,97582.14
2023-04-16T05:05:20.498Z,97589.37
2023-04-16T05:07:47.304Z,97590.92
2023-04-16T05:10:13.711Z,97594.24
2023-04-16T05:12:40.157Z,97595.72
2023-04-16T05:15:06.672Z,97593.75
2023-04-16T05:17:32.964Z,97597.82
2023-04-16T05:19:59.853Z,97602.72
2023-04-16T05:22:26.213Z,97601.64
2023-04-16T05:24:52.542Z,97602.81
2023-04-16T05:27:18.810Z,97599.69
2023-04-16T05:29:45.088Z,97595.53
2023-04-16T05:32:11.545Z,97601.05
2023-04-16T05:34:37.887Z,97604.16
2023-04-16T05:37:04.167Z,97607.67
2023-04-16T05:39:30.475Z,97610.20
2023-04-16T05:41:56.793Z,97606.95
2023-04-16T05:44:23.076Z,97608.52
2023-04-16T05:46:49.385Z,97611.55
2023-04-16T05:49:16.416Z,97611.84
2023-04-16T05:51:42.662Z,97616.89
2023-04-16T05:54:08.963Z,97619.14
2023-04-16T05:56:35.210Z,97622.29
2023-04-16T05:59:01.421Z,97626.02
2023-04-16T06:01:27.705Z,97630.40
2023-04-16T06:03:54.153Z,97634.48
2023-04-16T06:06:20.563Z,97637.27
2023-04-16T06:08:46.884Z,97640.73
2023-04-16T06:11:13.186Z,97645.26
2023-04-16T06:13:39.550Z,97650.61
2023-04-16T06:16:06.172Z,97654.71
2023-04-16T06:18:32.664Z,97660.17
2023-04-16T06:20:59.026Z,97662.25
2023-04-16T06:23:25.406Z,97666.20
2023-04-16T06:25:52.005Z,97664.98
2023-04-16T06:28:18.259Z,97662.91
2023-04-16T06:30:45.719Z,97664.83
2023-04-16T06:33:12.110Z,97667.86
2023-04-16T06:35:41.377Z,97674.51
2023-04-16T06:38:09.836Z,97674.11
2023-04-16T06:40:36.205Z,97678.10
2023-04-16T06:43:02.685Z,97676.64
2023-04-16T06:45:28.943Z,97677.33
2023-04-16T06:47:55.361Z,97673.30
2023-04-16T06:50:21.819Z,97671.95
2023-04-16T06:52:48.303Z,97668.64
2023-04-16T06:55:15.483Z,97660.23
2023-04-16T06:58:08.559Z,97657.52
2023-04-16T07:00:35.181Z,97656.67
2023-04-16T07:03:03.714Z,97656.75
2023-04-16T07:05:30.632Z,97661.99
2023-04-16T07:07:58.248Z,97664.86
2023-04-16T07:10:28.142Z,97668.20
2023-04-16T07:12:56.523Z,97669.67
2023-04-16T07:15:22.970Z,97669.31
2023-04-16T07:17:49.333Z,97671.66
2023-04-16T07:20:15.947Z,97678.48
2023-04-16T07:22:42.265Z,97685.23
2023-04-16T07:31:26.207Z,97694.73
2023-04-16T07:33:52.673Z,97695.73
2023-04-16T07:36:19.203Z,97698.61
2023-04-16T07:38:45.740Z,97696.80
2023-04-16T07:41:12.459Z,97698.20
2023-04-16T07:43:38.847Z,97701.02
2023-04-16T07:46:05.713Z,97705.84
2023-04-16T07:48:32.284Z,97705.65
2023-04-16T07:50:58.645Z,97703.67
2023-04-16T07:53:50.783Z,97706.30
2023-04-16T07:56:21.407Z,97709.94
2023-04-16T09:04:55.007Z,97752.34
2023-04-16T09:07:22.903Z,97755.95
2023-04-16T09:09:51.099Z,97758.97
2023-04-16T09:12:17.687Z,97761.77
2023-04-16T09:14:48.650Z,97760.18
2023-04-16T09:17:18.207Z,97764.74
2023-04-16T09:19:45.393Z,97762.23
2023-04-16T09:22:12.205Z,97760.47
2023-04-16T09:24:38.775Z,97764.67
2023-04-16T09:27:05.265Z,97764.78
2023-04-16T09:29:41.526Z,97764.70
2023-04-16T09:32:08.734Z,97765.86
2023-04-16T09:34:52.855Z,97765.19
2023-04-16T09:37:19.658Z,97763.17
2023-04-16T09:39:52.778Z,97766.27
2023-04-16T09:42:30.095Z,97763.85
2023-04-16T09:44:59.453Z,97766.25
2023-04-16T09:47:38.133Z,97771.50
2023-04-16T09:50:04.702Z,97766.21
2023-04-16T09:52:31.245Z,97762.39
2023-04-16T09:54:59.357Z,97760.09
2023-04-16T09:57:25.677Z,97762.91
2023-04-16T10:00:00.707Z,97762.30
2023-04-16T10:02:27.552Z,97761.73
2023-04-16T10:04:54.717Z,97760.23
2023-04-16T10:07:21.452Z,97755.94
2023-04-16T10:09:48.134Z,97753.36
2023-04-16T10:12:15.114Z,97756.88
2023-04-16T10:14:41.900Z,97757.66
2023-04-16T10:17:08.737Z,97762.64
2023-04-16T10:19:35.827Z,97765.30
2023-04-16T10:22:02.480Z,97764.26
2023-04-16T10:24:29.522Z,97764.02
2023-04-16T10:26:56.349Z,97767.70
2023-04-16T10:29:23.661Z,97770.97
2023-04-16T10:31:50.572Z,97774.52
2023-04-16T10:34:17.753Z,97772.02
2023-04-16T10:36:47.340Z,97772.98
2023-04-16T10:39:17.474Z,97774.09
2023-04-16T10:41:44.010Z,97776.92
2023-04-16T10:44:10.357Z,97773.73
2023-04-16T10:46:38.204Z,97773.61
2023-04-16T10:49:22.710Z,97776.44
2023-04-16T10:51:52.776Z,97779.88
2023-04-16T10:54:21.029Z,97782.02
2023-04-16T10:56:47.338Z,97778.79
2023-04-16T10:59:17.244Z,97777.71
2023-04-16T11:01:44.653Z,97779.85
2023-04-16T11:04:20.703Z,97773.99
2023-04-16T11:07:00.114Z,97775.66
2023-04-16T11:09:45.019Z,97776.66
2023-04-16T11:12:12.432Z,97780.40
2023-04-16T11:14:39.961Z,97775.60
2023-04-16T11:17:06.402Z,97777.64
2023-04-16T11:19:34.867Z,97788.09
2023-04-16T11:22:01.860Z,97786.92
2023-04-16T11:24:31.863Z,97789.23
2023-04-16T11:26:58.439Z,97792.86
2023-04-16T11:29:24.752Z,97795.32
2023-04-16T11:31:51.788Z,97793.70
2023-04-16T11:34:18.520Z,97796.04
2023-04-16T11:36:45.658Z,97794.52
2023-04-16T11:39:12.459Z,97793.95
2023-04-16T11:41:45.687Z,97785.87
2023-04-16T11:44:19.066Z,97787.90
2023-04-16T11:46:45.504Z,97779.48
2023-04-16T11:49:12.138Z,97780.20
2023-04-16T11:51:42.425Z,97782.30
2023-04-16T11:54:11.849Z,97781.85
2023-04-16T11:56:44.894Z,97778.09
2023-04-16T11:59:15.793Z,97779.71
2023-04-16T12:01:44.759Z,97785.85
2023-04-16T12:04:16.221Z,97789.86
2023-04-16T12:07:01.678Z,97788.77
2023-04-16T12:09:29.694Z,97781.76
2023-04-16T12:11:56.144Z,97786.05
2023-04-16T12:14:22.584Z,97787.79
2023-04-16T12:16:51.462Z,97790.51
2023-04-16T12:19:18.392Z,97792.06
2023-04-16T12:21:45.885Z,97791.83
2023-04-16T12:24:13.136Z,97789.22
2023-04-16T12:26:40.686Z,97792.77
2023-04-16T12:29:14.018Z,97791.59
2023-04-16T12:31:40.323Z,97791.69
2023-04-16T12:34:06.675Z,97792.00
2023-04-16T12:36:33.017Z,97790.58
2023-04-16T12:38:59.354Z,97788.86
2023-04-16T12:41:25.714Z,97787.50
2023-04-16T12:43:52.144Z,97787.41
2023-04-16T12:46:18.619Z,97788.71
2023-04-16T12:48:45.213Z,97788.88
2023-04-16T12:51:11.634Z,97784.70
2023-04-16T12:53:37.968Z,97784.80
2023-04-16T12:56:04.460Z,97779.14
2023-04-16T12:58:30.743Z,97774.35
2023-04-16T13:00:57.005Z,97772.08
2023-04-16T13:03:23.412Z,97770.55
2023-04-16T13:05:49.955Z,97773.70
2023-04-16T13:08:16.323Z,97773.19
2023-04-16T13:10:42.634Z,97776.45
2023-04-16T13:13:09.011Z,97776.10
2023-04-16T13:15:35.403Z,97772.42
2023-04-16T13:18:01.922Z,97778.23
2023-04-16T13:20:28.349Z,97776.80
2023-04-16T13:22:54.879Z,97774.10
2023-04-16T13:25:21.216Z,97777.05
2023-04-16T13:27:47.537Z,97779.23
2023-04-16T13:30:13.940Z,97780.50
2023-04-16T13:32:40.427Z,97775.45
2023-04-16T13:35:06.966Z,97773.56
2023-04-16T13:37:33.880Z,97773.36
2023-04-16T13:40:00.170Z,97769.77
2023-04-16T13:42:26.472Z,97772.87
2023-04-16T13:44:52.792Z,97772.39
2023-04-16T13:47:19.281Z,97773.09
2023-04-16T13:49:45.720Z,97775.89
2023-04-16T13:52:14.167Z,97780.27
2023-04-16T13:54:40.590Z,97772.33
2023-04-16T13:57:06.902Z,97769.98
2023-04-16T13:59:33.276Z,97762.11
2023-04-16T14:01:59.642Z,97768.51
2023-04-16T14:04:26.183Z,97770.14
2023-04-16T14:06:52.766Z,97766.75
2023-04-16T14:09:19.077Z,97766.93
2023-04-16T14:11:45.462Z,97769.77
2023-04-16T14:14:11.784Z,97769.59
2023-04-16T14:16:38.141Z,97767.79
2023-04-16T14:19:04.647Z,97769.54
2023-04-16T14:21:31.101Z,97767.98
2023-04-16T14:23:57.384Z,97769.72
2023-04-16T14:26:23.742Z,97766.82
2023-04-16T14:28:50.087Z,97770.89
2023-04-16T14:31:16.381Z,97767.49
2023-04-16T14:33:43.447Z,97767.48
2023-04-16T14:36:09.876Z,97768.20
2023-04-16T14:38:50.936Z,97765.42
2023-04-16T14:41:17.323Z,97767.13
2023-04-16T14:43:43.637Z,97767.86
2023-04-16T14:46:10.290Z,97770.42
2023-04-16T14:48:37.263Z,97767.15
2023-04-16T14:51:03.641Z,97764.66
2023-04-16T14:53:30.423Z,97769.98
2023-04-16T14:55:56.828Z,97767.89
2023-04-16T14:58:23.175Z,97770.73
2023-04-16T15:00:49.426Z,97767.91
2023-04-16T15:03:16.260Z,97774.72
2023-04-16T15:05:42.687Z,97775.80
2023-04-16T15:08:09.065Z,97774.73
2023-04-16T15:10:35.477Z,97775.42
2023-04-16T15:13:01.814Z,97774.72
2023-04-16T15:15:28.241Z,97776.25
2023-04-16T15:17:54.690Z,97775.34
2023-04-16T15:20:21.063Z,97774.30
2023-04-16T15:22:47.645Z,97775.10
2023-04-16T15:25:14.005Z,97773.94
2023-04-16T15:27:40.341Z,97778.81
2023-04-16T15:30:34.878Z,97780.52
2023-04-16T15:33:01.464Z,97783.15
2023-04-16T15:35:27.977Z,97786.07
2023-04-16T15:37:54.543Z,97783.80
2023-04-16T15:40:22.353Z,97784.67
2023-04-16T15:42:48.826Z,97788.34
2023-04-16T15:45:15.455Z,97787.39
2023-04-16T15:47:43.203Z,97791.16
2023-04-16T15:50:09.782Z,97788.15
2023-04-16T15:52:36.449Z,97786.84
2023-04-16T15:55:04.320Z,97783.61
2023-04-16T15:57:31.129Z,97788.21
2023-04-16T16:00:06.345Z,97789.80
2023-04-16T16:02:33.857Z,97789.06
2023-04-16T16:05:00.611Z,97788.44
2023-04-16T16:07:27.318Z,97789.81
2023-04-16T16:09:53.957Z,97791.90
2023-04-16T16:12:23.669Z,97788.95
2023-04-16T16:14:50.218Z,97790.15
2023-04-16T16:17:17.507Z,97795.29
2023-04-16T16:20:12.183Z,97798.30
2023-04-16T16:22:39.368Z,97798.58
2023-04-16T16:25:06.275Z,97802.04
2023-04-16T16:27:33.038Z,97799.16
2023-04-16T16:29:59.652Z,97801.80
2023-04-16T16:32:26.343Z,97803.45
2023-04-16T16:34:53.033Z,97801.42
2023-04-16T16:37:19.440Z,97803.20
2023-04-16T16:39:46.073Z,97805.54
2023-04-16T16:42:12.624Z,97807.48
2023-04-16T16:44:40.101Z,97805.50
2023-04-16T16:47:06.806Z,97805.64
2023-04-16T16:49:33.258Z,97806.96
2023-04-16T16:51:59.753Z,97807.11
2023-04-16T16:54:28.412Z,97810.83
2023-04-16T16:57:20.110Z,97811.66
2023-04-16T16:59:47.183Z,97814.80
2023-04-16T17:02:16.351Z,97820.98
2023-04-16T17:04:43.832Z,97817.65
2023-04-16T17:07:10.883Z,97823.38
2023-04-16T17:09:37.346Z,97825.73
2023-04-16T17:12:05.321Z,97828.17
2023-04-16T17:14:56.956Z,97826.68
2023-04-16T17:17:24.211Z,97831.58
2023-04-16T17:19:50.571Z,97835.02
2023-04-16T17:22:16.956Z,97837.13
2023-04-16T17:24:46.015Z,97837.36
2023-04-16T17:27:15.633Z,97841.86
2023-04-16T17:29:42.117Z,97845.52
2023-04-16T17:32:08.659Z,97848.96
2023-04-16T17:34:35.647Z,97851.36
2023-04-16T17:37:02.182Z,97856.22
2023-04-16T17:39:29.010Z,97855.27
2023-04-16T17:41:55.685Z,97856.87
2023-04-16T17:44:22.128Z,97858.95
2023-04-16T17:47:13.795Z,97859.30
2023-04-16T17:49:40.964Z,97864.45
2023-04-16T17:52:11.204Z,97865.25
2023-04-16T17:54:39.370Z,97869.96
2023-04-16T17:57:09.550Z,97867.80
2023-04-16T17:59:36.038Z,97872.18
2023-04-16T18:02:05.554Z,97872.41
2023-04-16T18:04:33.247Z,97873.09
2023-04-16T18:06:59.701Z,97872.83
2023-04-16T18:09:26.243Z,97872.95
2023-04-16T18:12:06.232Z,97873.06
2023-04-16T18:14:37.187Z,97873.52
2023-04-16T18:17:06.322Z,97878.67
2023-04-16T18:19:40.697Z,97879.00
2023-04-16T18:22:07.524Z,97883.23
2023-04-16T18:24:36.989Z,97892.00
2023-04-16T18:27:04.144Z,97892.05
2023-04-16T18:29:33.939Z,97893.02
2023-04-16T18:32:09.872Z,97899.11
2023-04-16T18:34:38.962Z,97902.99
2023-04-16T18:37:05.639Z,97906.86
2023-04-16T18:39:32.513Z,97911.35
2023-04-16T18:41:59.235Z,97911.02
2023-04-16T18:44:26.732Z,97913.17
2023-04-16T18:46:53.365Z,97913.45
2023-04-16T18:49:21.205Z,97917.63
2023-04-16T18:51:47.747Z,97916.77
2023-04-16T18:54:20.495Z,97918.31
2023-04-16T18:56:47.102Z,97925.62
2023-04-16T18:59:13.879Z,97925.84
2023-04-16T19:01:40.367Z,97925.58
2023-04-16T19:04:07.101Z,97927.89
2023-04-16T19:06:36.310Z,97925.77
2023-04-16T19:09:02.899Z,97926.27
2023-04-16T19:11:29.525Z,97929.30
2023-04-16T19:13:56.165Z,97932.79
2023-04-16T19:16:22.949Z,97928.86
2023-04-16T19:18:49.522Z,97930.95
2023-04-16T19:21:17.358Z,97928.21
2023-04-16T19:23:43.870Z,97926.09
2023-04-16T19:26:10.478Z,97929.22
2023-04-16T19:28:36.915Z,97929.95
2023-04-16T19:31:03.888Z,97927.98
2023-04-16T19:33:30.416Z,97930.14
2023-04-16T19:35:56.812Z,97929.00
2023-04-16T19:38:23.259Z,97931.30
2023-04-16T19:40:49.772Z,97932.70
2023-04-16T19:43:16.517Z,97937.65
2023-04-16T19:45:43.750Z,97937.08
2023-04-16T19:48:10.340Z,97934.75
2023-04-16T19:50:40.353Z,97934.05
2023-04-16T19:53:07.741Z,97931.92
2023-04-16T19:55:34.179Z,97931.50
2023-04-16T19:58:26.039Z,97935.00
2023-04-16T20:00:52.665Z,97935.84
2023-04-16T20:03:19.167Z,97938.59
2023-04-16T20:05:47.127Z,97938.08
2023-04-16T20:08:13.728Z,97937.83
2023-04-16T20:10:40.325Z,97938.69
2023-04-16T20:13:10.963Z,97932.80
2023-04-16T20:15:37.834Z,97931.47
2023-04-16T20:18:05.693Z,97929.95
2023-04-16T20:20:34.176Z,97932.60
2023-04-16T20:23:20.485Z,97937.95
2023-04-16T20:25:50.524Z,97935.57
2023-04-16T20:28:17.032Z,97934.86
2023-04-16T20:30:43.381Z,97934.31
2023-04-16T20:33:09.942Z,97937.41
2023-04-16T20:35:36.655Z,97937.02
2023-04-16T20:38:25.027Z,97938.14
2023-04-16T20:40:51.933Z,97935.11
2023-04-16T20:43:18.524Z,97935.04
2023-04-16T20:45:45.173Z,97933.55
2023-04-16T20:48:11.637Z,97932.79
2023-04-16T20:50:38.114Z,97934.48
2023-04-16T20:53:04.616Z,97932.45
2023-04-16T20:55:31.060Z,97930.66
2023-04-16T20:57:57.432Z,97930.87
2023-04-16T21:00:23.890Z,97932.09
2023-04-16T21:02:50.349Z,97933.19
2023-04-16T21:05:16.769Z,97932.20
2023-04-16T21:07:43.307Z,97930.28
2023-04-16T21:10:09.903Z,97930.95
2023-04-16T21:12:36.271Z,97925.95
2023-04-16T21:15:03.537Z,97922.75
2023-04-16T21:17:30.093Z,97921.51
2023-04-16T21:19:56.512Z,97920.17
2023-04-16T21:22:22.888Z,97916.23
2023-04-16T21:24:49.302Z,97919.67
2023-04-16T21:27:15.518Z,97920.70
2023-04-16T21:29:41.801Z,97925.40
2023-04-16T21:32:08.230Z,97924.14
2023-04-16T21:34:34.514Z,97921.38
2023-04-16T21:37:00.819Z,97919.61
2023-04-16T21:39:27.143Z,97919.36
2023-04-16T21:41:53.371Z,97918.45
2023-04-16T21:44:19.715Z,97922.09
2023-04-16T21:46:46.270Z,97923.34
2023-04-16T21:49:12.891Z,97926.91
2023-04-16T21:51:40.580Z,97928.60
2023-04-16T21:54:07.149Z,97925.63
2023-04-16T21:56:33.399Z,97923.60
2023-04-16T21:58:59.674Z,97922.98
2023-04-16T22:01:26.041Z,97922.66
2023-04-16T22:03:52.598Z,97920.66
2023-04-16T22:06:19.115Z,97921.87
2023-04-16T22:08:45.598Z,97928.73
2023-04-16T22:11:11.880Z,97929.88
2023-04-16T22:13:38.178Z,97924.73
2023-04-16T22:16:04.793Z,97922.80
2023-04-16T22:18:31.184Z,97924.27
2023-04-16T22:20:57.659Z,97924.66
2023-04-16T22:23:24.609Z,97923.66
2023-04-16T22:25:52.850Z,97922.70
2023-04-16T22:28:19.093Z,97926.66
2023-04-16T22:30:45.452Z,97925.36
2023-04-16T22:33:11.858Z,97922.33
2023-04-16T22:35:38.348Z,97924.11
2023-04-16T22:38:04.794Z,97928.27
2023-04-16T22:40:31.063Z,97928.52
2023-04-16T22:42:57.321Z,97927.89
2023-04-16T22:45:23.642Z,97928.77
2023-04-16T22:47:49.905Z,97928.25
2023-04-16T22:50:16.491Z,97929.09
2023-04-16T22:52:42.740Z,97926.39
2023-04-16T22:55:09.000Z,97923.97
2023-04-16T22:57:35.310Z,97921.73
2023-04-16T23:00:01.810Z,97922.92
2023-04-16T23:02:28.190Z,97926.45
2023-04-16T23:04:54.596Z,97922.21
2023-04-16T23:07:21.015Z,97922.92
2023-04-16T23:09:47.254Z,97923.73
2023-04-16T23:12:13.521Z,97918.20
2023-04-16T23:14:39.811Z,97920.36
2023-04-16T23:17:06.041Z,97917.27
2023-04-16T23:19:32.347Z,97916.86
2023-04-16T23:21:58.660Z,97915.88
2023-04-16T23:24:25.051Z,97919.05
2023-04-16T23:26:51.530Z,97916.88
2023-04-16T23:29:17.971Z,97916.97
2023-04-16T23:31:44.240Z,97913.83
2023-04-16T23:34:10.593Z,97911.98
2023-04-16T23:36:36.925Z,97909.00
2023-04-16T23:39:03.252Z,97910.25
2023-04-16T23:41:29.587Z,97910.80
2023-04-16T23:43:55.972Z,97909.83
2023-04-16T23:46:22.321Z,97910.67
2023-04-16T23:48:48.760Z,97907.89
2023-04-16T23:51:15.024Z,97905.92
2023-04-16T23:53:41.435Z,97908.25
2023-04-16T23:56:07.807Z,97908.17
2023-04-16T23:58:34.051Z,97906.73
